createdAt,value
2022-10-12T00:01:26.189Z,100972.94
2022-10-12T00:04:00.873Z,100973.81
2022-10-12T00:06:37.590Z,100968.22
2022-10-12T00:09:12.761Z,100970.94
2022-10-12T00:11:46.458Z,100963.47
2022-10-12T00:14:20.390Z,100967.44
2022-10-12T00:16:54.002Z,100962.34
2022-10-12T00:19:27.753Z,100967.28
2022-10-12T00:22:01.374Z,100965.22
2022-10-12T00:24:40.592Z,100956.72
2022-10-12T00:27:16.534Z,100953.66
2022-10-12T00:29:49.730Z,100955.03
2022-10-12T00:32:23.180Z,100944.66
2022-10-12T00:34:56.905Z,100955.53
2022-10-12T00:37:29.724Z,100954.50
2022-10-12T00:40:05.054Z,100939.19
2022-10-12T00:42:37.877Z,100949.09
2022-10-12T00:45:12.116Z,100941.25
2022-10-12T00:47:51.432Z,100936.97
2022-10-12T00:50:28.748Z,100936.66
2022-10-12T00:53:07.927Z,100930.34
2022-10-12T00:55:49.000Z,100929.78
2022-10-12T00:58:23.943Z,100925.59
2022-10-12T01:00:57.674Z,100928.47
2022-10-12T01:03:31.459Z,100917.59
2022-10-12T01:06:07.211Z,100913.09
2022-10-12T01:08:41.194Z,100916.91
2022-10-12T01:11:15.491Z,100918.19
2022-10-12T01:13:48.501Z,100907.81
2022-10-12T01:16:29.038Z,100895.03
2022-10-12T01:19:15.008Z,100903.84
2022-10-12T01:21:56.301Z,100895.84
2022-10-12T01:24:45.926Z,100892.09
2022-10-12T01:27:52.116Z,100884.28
2022-10-12T01:30:30.678Z,100888.22
2022-10-12T01:33:23.377Z,100883.88
2022-10-12T01:36:05.745Z,100870.53
2022-10-12T01:38:49.499Z,100863.53
2022-10-12T01:41:28.799Z,100869.28
2022-10-12T01:44:02.108Z,100869.34
2022-10-12T01:46:45.767Z,100866.19
2022-10-12T01:49:23.990Z,100855.47
2022-10-12T01:52:12.360Z,100854.19
2022-10-12T01:55:07.870Z,100844.81
2022-10-12T01:57:54.912Z,100839.53
2022-10-12T02:00:28.664Z,100832.41
2022-10-12T02:03:13.175Z,100825.47
2022-10-12T02:05:54.416Z,100827.16
2022-10-12T02:08:33.708Z,100828.00
2022-10-12T02:11:11.993Z,100813.50
2022-10-12T02:13:49.665Z,100815.25
2022-10-12T02:16:29.472Z,100806.19
2022-10-12T02:19:06.363Z,100805.94
2022-10-12T02:21:41.912Z,100807.41
2022-10-12T02:24:17.985Z,100803.22
2022-10-12T02:26:55.374Z,100810.13
2022-10-12T02:29:35.112Z,100816.59
2022-10-12T02:32:14.589Z,100808.59
2022-10-12T02:34:56.053Z,100805.00
2022-10-12T02:37:37.657Z,100802.19
2022-10-12T02:40:17.021Z,100799.13
2022-10-12T02:43:10.810Z,100799.41
2022-10-12T02:45:47.993Z,100790.72
2022-10-12T02:48:24.749Z,100795.91
2022-10-12T02:51:01.397Z,100786.91
2022-10-12T02:53:35.643Z,100788.78
2022-10-12T02:56:13.121Z,100790.25
2022-10-12T02:58:49.013Z,100783.97
2022-10-12T03:01:22.691Z,100785.84
2022-10-12T03:03:56.589Z,100784.59
2022-10-12T03:06:31.605Z,100785.25
2022-10-12T03:09:06.059Z,100786.63
2022-10-12T03:11:43.679Z,100780.19
2022-10-12T03:14:18.480Z,100771.28
2022-10-12T03:16:52.190Z,100773.38
2022-10-12T03:19:25.979Z,100776.75
2022-10-12T03:22:00.997Z,100765.19
2022-10-12T03:24:34.744Z,100772.00
2022-10-12T03:27:08.452Z,100762.25
2022-10-12T03:29:42.375Z,100772.16
2022-10-12T03:32:16.105Z,100775.38
2022-10-12T03:34:49.775Z,100766.53
2022-10-12T03:37:24.779Z,100765.84
2022-10-12T03:39:58.017Z,100766.88
2022-10-12T03:42:31.656Z,100757.88
2022-10-12T03:45:05.611Z,100766.88
2022-10-12T03:47:39.582Z,100755.97
2022-10-12T03:50:12.771Z,100750.53
2022-10-12T03:52:47.852Z,100748.75
2022-10-12T03:55:21.662Z,100749.22
2022-10-12T03:57:55.204Z,100742.28
2022-10-12T04:00:29.365Z,100736.34
2022-10-12T04:03:03.638Z,100729.88
2022-10-12T04:05:40.534Z,100731.59
2022-10-12T04:08:15.673Z,100736.34
2022-10-12T04:10:50.841Z,100734.28
2022-10-12T04:13:24.586Z,100731.16
2022-10-12T04:16:02.669Z,100733.38
2022-10-12T04:18:36.447Z,100733.34
2022-10-12T04:21:13.636Z,100738.59
2022-10-12T04:23:48.657Z,100742.50
2022-10-12T04:26:21.994Z,100741.81
2022-10-12T04:28:55.625Z,100741.63
2022-10-12T04:31:29.511Z,100742.09
2022-10-12T04:34:02.808Z,100741.59
2022-10-12T04:36:36.558Z,100729.16
2022-10-12T04:39:11.687Z,100726.06
2022-10-12T04:41:45.212Z,100722.00
2022-10-12T04:44:18.761Z,100723.50
2022-10-12T04:46:52.456Z,100715.72
2022-10-12T04:49:26.166Z,100711.09
2022-10-12T04:51:59.967Z,100715.34
2022-10-12T04:54:35.009Z,100709.56
2022-10-12T04:57:08.724Z,100706.91
2022-10-12T04:59:42.320Z,100701.09
2022-10-12T05:02:16.225Z,100706.84
2022-10-12T05:04:50.235Z,100704.44
2022-10-12T05:07:24.147Z,100702.53
2022-10-12T05:09:59.096Z,100700.72
2022-10-12T05:12:32.695Z,100697.16
2022-10-12T05:15:07.326Z,100699.06
2022-10-12T05:17:41.289Z,100688.84
2022-10-12T05:20:15.111Z,100683.34
2022-10-12T05:22:48.838Z,100687.22
2022-10-12T05:25:23.871Z,100693.69
2022-10-12T05:27:57.890Z,100692.00
2022-10-12T05:30:31.764Z,100682.13
2022-10-12T05:33:05.626Z,100685.72
2022-10-12T05:35:38.425Z,100677.59
2022-10-12T05:38:12.222Z,100678.53
2022-10-12T05:40:47.288Z,100677.00
2022-10-12T05:43:20.924Z,100674.50
2022-10-12T05:45:54.490Z,100683.16
2022-10-12T05:48:28.194Z,100682.50
2022-10-12T05:51:01.712Z,100671.03
2022-10-12T05:53:35.394Z,100682.31
2022-10-12T05:56:09.768Z,100674.50
2022-10-12T05:58:43.345Z,100674.25
2022-10-12T06:01:16.553Z,100674.78
2022-10-12T06:03:49.433Z,100680.25
2022-10-12T06:06:22.811Z,100672.06
2022-10-12T06:08:55.658Z,100679.03
2022-10-12T06:11:32.635Z,100661.84
2022-10-12T06:14:08.466Z,100661.53
2022-10-12T06:16:41.417Z,100654.47
2022-10-12T06:19:14.604Z,100648.03
2022-10-12T06:21:47.466Z,100644.16
2022-10-12T06:24:21.313Z,100655.91
2022-10-12T06:26:55.543Z,100649.06
2022-10-12T06:29:28.355Z,100639.94
2022-10-12T06:32:01.166Z,100643.44
2022-10-12T06:34:33.961Z,100626.13
2022-10-12T06:37:06.833Z,100620.47
2022-10-12T06:39:39.640Z,100623.63
2022-10-12T06:42:13.825Z,100626.97
2022-10-12T06:44:46.793Z,100623.56
2022-10-12T06:47:19.564Z,100619.94
2022-10-12T06:49:52.482Z,100622.19
2022-10-12T06:52:25.323Z,100623.69
2022-10-12T06:54:58.209Z,100623.56
2022-10-12T06:57:33.400Z,100619.63
2022-10-12T07:00:09.610Z,100608.38
2022-10-12T07:02:43.200Z,100615.34
2022-10-12T07:05:16.437Z,100605.56
2022-10-12T07:07:49.601Z,100605.19
2022-10-12T07:10:22.423Z,100607.34
2022-10-12T07:12:56.763Z,100599.91
2022-10-12T07:15:29.556Z,100606.22
2022-10-12T07:18:03.125Z,100598.72
2022-10-12T07:20:36.415Z,100599.16
2022-10-12T07:23:10.038Z,100600.94
2022-10-12T07:25:49.976Z,100598.03
2022-10-12T07:28:25.087Z,100593.44
2022-10-12T07:31:03.527Z,100596.59
2022-10-12T07:33:38.710Z,100602.25
2022-10-12T07:36:19.296Z,100605.56
2022-10-12T07:38:54.651Z,100600.78
2022-10-12T07:41:28.427Z,100607.25
2022-10-12T07:44:03.624Z,100607.06
2022-10-12T07:46:36.516Z,100608.53
2022-10-12T07:49:09.983Z,100603.19
2022-10-12T07:51:44.338Z,100601.97
2022-10-12T07:54:20.990Z,100607.78
2022-10-12T07:56:55.518Z,100607.78
2022-10-12T07:59:30.043Z,100604.97
2022-10-12T08:02:03.103Z,100615.28
2022-10-12T08:04:36.023Z,100614.16
2022-10-12T08:07:10.122Z,100621.84
2022-10-12T08:09:43.166Z,100635.50
2022-10-12T08:12:16.169Z,100622.81
2022-10-12T08:14:50.473Z,100616.44
2022-10-12T08:17:23.379Z,100625.25
2022-10-12T08:19:56.254Z,100611.44
2022-10-12T08:22:29.319Z,100607.22
2022-10-12T08:25:02.180Z,100622.28
2022-10-12T08:27:35.955Z,100632.81
2022-10-12T08:30:11.540Z,100626.09
2022-10-12T08:32:44.451Z,100634.28
2022-10-12T08:35:17.369Z,100635.22
2022-10-12T08:37:50.454Z,100631.06
2022-10-12T08:40:30.681Z,100635.97
2022-10-12T08:43:13.236Z,100638.63
2022-10-12T08:45:53.748Z,100642.13
2022-10-12T08:48:31.069Z,100640.06
2022-10-12T08:51:08.429Z,100631.25
2022-10-12T08:53:51.869Z,100622.44
2022-10-12T08:56:24.871Z,100618.66
2022-10-12T08:58:58.151Z,100615.44
2022-10-12T09:01:37.367Z,100612.06
2022-10-12T09:04:26.364Z,100614.13
2022-10-12T09:07:07.087Z,100615.56
2022-10-12T09:09:54.692Z,100615.38
2022-10-12T09:12:41.860Z,100608.44
2022-10-12T09:15:19.648Z,100613.13
2022-10-12T09:17:55.780Z,100608.47
2022-10-12T09:20:31.998Z,100617.38
2022-10-12T09:23:18.006Z,100621.16
2022-10-12T09:25:52.093Z,100614.44
2022-10-12T09:28:33.765Z,100619.03
2022-10-12T09:31:21.437Z,100619.16
2022-10-12T09:33:58.820Z,100610.78
2022-10-12T09:36:35.519Z,100613.00
2022-10-12T09:39:14.683Z,100607.59
2022-10-12T09:41:49.515Z,100614.66
2022-10-12T09:44:29.022Z,100614.91
2022-10-12T09:47:03.925Z,100604.56
2022-10-12T09:49:46.098Z,100605.28
2022-10-12T09:52:23.001Z,100592.47
2022-10-12T09:54:58.709Z,100590.41
2022-10-12T09:57:34.885Z,100592.00
2022-10-12T10:00:25.014Z,100591.19
2022-10-12T10:02:58.561Z,100606.31
2022-10-12T10:05:34.511Z,100603.38
2022-10-12T10:08:20.299Z,100594.28
2022-10-12T10:10:54.187Z,100610.06
2022-10-12T10:13:30.310Z,100609.94
2022-10-12T10:16:06.214Z,100605.38
2022-10-12T10:18:43.060Z,100605.38
2022-10-12T10:21:28.366Z,100597.69
2022-10-12T10:24:02.952Z,100601.34
2022-10-12T10:26:54.623Z,100595.44
2022-10-12T10:29:36.313Z,100589.34
2022-10-12T10:32:29.004Z,100581.44
2022-10-12T10:35:04.091Z,100585.22
2022-10-12T10:37:40.205Z,100563.72
2022-10-12T10:40:19.842Z,100571.00
2022-10-12T10:42:55.411Z,100559.66
2022-10-12T10:45:31.175Z,100569.03
2022-10-12T10:48:09.395Z,100544.66
2022-10-12T10:50:45.048Z,100551.84
2022-10-12T10:53:22.024Z,100561.81
2022-10-12T10:56:00.743Z,100555.69
2022-10-12T10:58:38.850Z,100550.69
2022-10-12T11:01:19.579Z,100555.53
2022-10-12T11:03:59.554Z,100541.78
2022-10-12T11:06:40.745Z,100539.41
2022-10-12T11:09:20.618Z,100545.88
2022-10-12T11:12:00.520Z,100551.78
2022-10-12T11:14:38.610Z,100541.88
2022-10-12T11:17:17.786Z,100534.91
2022-10-12T11:19:57.268Z,100541.88
2022-10-12T11:22:37.286Z,100548.59
2022-10-12T11:25:22.094Z,100545.50
2022-10-12T11:27:55.464Z,100551.81
2022-10-12T11:30:38.369Z,100549.91
2022-10-12T11:33:17.336Z,100551.41
2022-10-12T11:35:50.905Z,100548.28
2022-10-12T11:38:30.903Z,100548.91
2022-10-12T11:41:34.471Z,100549.91
2022-10-12T11:44:08.521Z,100551.31
2022-10-12T11:46:50.663Z,100547.22
2022-10-12T11:49:30.776Z,100554.78
2022-10-12T11:52:12.094Z,100554.19
2022-10-12T11:54:53.507Z,100560.31
2022-10-12T11:57:32.855Z,100557.31
2022-10-12T12:00:18.568Z,100551.81
2022-10-12T12:02:56.926Z,100551.78
2022-10-12T12:05:33.610Z,100544.97
2022-10-12T12:08:06.604Z,100553.41
2022-10-12T12:11:08.263Z,100537.78
2022-10-12T12:13:42.865Z,100539.50
2022-10-12T12:16:33.807Z,100540.66
2022-10-12T12:19:37.659Z,100535.63
2022-10-12T12:22:17.996Z,100532.31
2022-10-12T12:25:04.119Z,100539.28
2022-10-12T12:27:41.291Z,100536.34
2022-10-12T12:30:32.201Z,100537.38
2022-10-12T12:33:25.364Z,100532.63
2022-10-12T12:36:00.745Z,100537.44
2022-10-12T12:38:36.311Z,100531.72
2022-10-12T12:41:14.315Z,100525.91
2022-10-12T12:43:59.438Z,100523.28
2022-10-12T12:47:39.909Z,100520.44
2022-10-12T12:50:33.475Z,100517.91
2022-10-12T12:53:12.545Z,100520.03
2022-10-12T12:56:03.752Z,100512.44
2022-10-12T12:58:58.555Z,100505.44
2022-10-12T13:02:03.622Z,100508.25
2022-10-12T13:04:58.808Z,100496.91
2022-10-12T13:08:03.269Z,100489.72
2022-10-12T13:10:52.775Z,100494.75
2022-10-12T13:13:44.251Z,100497.69
2022-10-12T13:17:30.045Z,100484.41
2022-10-12T13:19:34.120Z,100475.59
2022-10-12T13:22:15.895Z,100476.00
2022-10-12T13:24:53.236Z,100482.50
2022-10-12T13:27:33.996Z,100475.38
2022-10-12T13:30:14.977Z,100476.84
2022-10-12T13:32:54.638Z,100466.31
2022-10-12T13:35:35.102Z,100460.53
2022-10-12T13:38:21.270Z,100460.59
2022-10-12T13:41:03.720Z,100456.22
2022-10-12T13:43:43.944Z,100456.19
2022-10-12T13:46:36.949Z,100446.72
2022-10-12T13:49:18.938Z,100450.53
2022-10-12T13:51:54.748Z,100446.75
2022-10-12T13:54:36.791Z,100441.47
2022-10-12T13:57:22.791Z,100440.81
2022-10-12T13:59:59.211Z,100441.47
2022-10-12T14:02:33.793Z,100433.25
2022-10-12T14:05:17.830Z,100428.16
2022-10-12T14:07:54.305Z,100429.44
2022-10-12T14:10:33.260Z,100426.84
2022-10-12T14:13:09.491Z,100424.31
2022-10-12T14:15:43.873Z,100426.00
2022-10-12T14:18:37.847Z,100430.38
2022-10-12T14:21:23.485Z,100423.81
2022-10-12T14:23:58.383Z,100418.34
2022-10-12T14:26:39.014Z,100415.00
2022-10-12T14:29:34.179Z,100416.34
2022-10-12T14:32:08.557Z,100406.19
2022-10-12T14:34:46.646Z,100401.81
2022-10-12T14:37:27.579Z,100403.09
2022-10-12T14:40:01.055Z,100396.72
2022-10-12T14:42:35.402Z,100395.44
2022-10-12T14:45:25.527Z,100394.44
2022-10-12T14:47:59.799Z,100390.38
2022-10-12T14:50:33.622Z,100382.94
2022-10-12T14:53:12.819Z,100386.53
2022-10-12T14:55:46.926Z,100375.78
2022-10-12T14:58:22.399Z,100379.81
2022-10-12T15:00:56.657Z,100373.69
2022-10-12T15:03:29.562Z,100373.00
2022-10-12T15:06:02.506Z,100368.59
2022-10-12T15:08:35.369Z,100363.94
2022-10-12T15:11:08.343Z,100366.47
2022-10-12T15:13:41.970Z,100355.09
2022-10-12T15:16:21.577Z,100352.34
2022-10-12T15:18:55.037Z,100357.63
2022-10-12T15:21:27.984Z,100341.63
2022-10-12T15:24:00.863Z,100343.34
2022-10-12T15:26:33.736Z,100350.53
2022-10-12T15:29:06.660Z,100346.81
2022-10-12T15:31:41.908Z,100355.50
2022-10-12T15:34:16.222Z,100346.22
2022-10-12T15:36:49.814Z,100347.06
2022-10-12T15:39:22.604Z,100341.63
2022-10-12T15:41:55.943Z,100345.59
2022-10-12T15:44:29.223Z,100338.47
2022-10-12T15:47:03.437Z,100334.22
2022-10-12T15:49:36.384Z,100323.03
2022-10-12T15:52:11.817Z,100327.53
2022-10-12T15:54:48.768Z,100331.91
2022-10-12T15:57:21.895Z,100317.78
2022-10-12T15:59:54.757Z,100320.34
2022-10-12T16:02:29.254Z,100320.34
2022-10-12T16:05:02.302Z,100312.81
2022-10-12T16:07:35.172Z,100309.22
2022-10-12T16:10:10.324Z,100304.56
2022-10-12T16:12:44.719Z,100312.78
2022-10-12T16:15:21.520Z,100313.88
2022-10-12T16:17:55.834Z,100312.97
2022-10-12T16:20:30.856Z,100300.81
2022-10-12T16:23:04.297Z,100308.16
2022-10-12T16:25:37.321Z,100300.16
2022-10-12T16:28:12.088Z,100302.47
2022-10-12T16:30:45.132Z,100301.84
2022-10-12T16:33:19.817Z,100302.28
2022-10-12T16:35:52.752Z,100306.25
2022-10-12T16:38:25.620Z,100305.22
2022-10-12T16:40:58.479Z,100303.13
2022-10-12T16:43:31.366Z,100304.56
2022-10-12T16:46:04.296Z,100304.19
2022-10-12T16:48:39.043Z,100309.00
2022-10-12T16:51:13.615Z,100307.94
2022-10-12T16:53:47.025Z,100307.31
2022-10-12T16:56:20.647Z,100306.69
2022-10-12T16:58:54.506Z,100298.25
2022-10-12T17:01:27.389Z,100306.25
2022-10-12T17:04:02.713Z,100307.13
2022-10-12T17:06:35.624Z,100309.44
2022-10-12T17:09:09.666Z,100305.63
2022-10-12T17:11:43.325Z,100314.47
2022-10-12T17:14:18.204Z,100310.25
2022-10-12T17:16:52.634Z,100312.78
2022-10-12T17:19:29.879Z,100310.06
2022-10-12T17:22:04.548Z,100313.63
2022-10-12T17:24:40.573Z,100314.91
2022-10-12T17:27:15.873Z,100312.56
2022-10-12T17:29:49.922Z,100319.09
2022-10-12T17:32:23.395Z,100316.38
2022-10-12T17:34:57.586Z,100318.91
2022-10-12T17:37:31.234Z,100321.22
2022-10-12T17:40:04.765Z,100332.34
2022-10-12T17:42:37.731Z,100345.00
2022-10-12T17:45:15.585Z,100356.13
2022-10-12T17:47:49.438Z,100352.53
2022-10-12T17:50:24.573Z,100348.31
2022-10-12T17:52:58.108Z,100357.78
2022-10-12T17:55:48.067Z,100365.38
2022-10-12T17:58:22.479Z,100364.69
2022-10-12T18:00:56.238Z,100368.28
2022-10-12T18:03:29.814Z,100370.66
2022-10-12T18:06:08.215Z,100378.50
2022-10-12T18:08:41.890Z,100390.66
2022-10-12T18:11:16.174Z,100391.66
2022-10-12T18:13:52.350Z,100396.41
2022-10-12T18:16:27.584Z,100393.94
2022-10-12T18:19:02.798Z,100402.13
2022-10-12T18:21:37.318Z,100393.84
2022-10-12T18:24:16.519Z,100395.59
2022-10-12T18:26:50.865Z,100399.81
2022-10-12T18:29:24.438Z,100400.94
2022-10-12T18:31:58.294Z,100404.78
2022-10-12T18:34:36.382Z,100406.91
2022-10-12T18:37:11.988Z,100415.38
2022-10-12T18:39:45.616Z,100411.97
2022-10-12T18:42:19.495Z,100421.69
2022-10-12T18:44:53.279Z,100422.13
2022-10-12T18:47:26.358Z,100417.72
2022-10-12T18:49:59.835Z,100418.34
2022-10-12T18:52:35.072Z,100427.78
2022-10-12T18:55:09.384Z,100426.78
2022-10-12T18:57:42.656Z,100439.38
2022-10-12T19:00:16.743Z,100420.47
2022-10-12T19:02:50.630Z,100428.03
2022-10-12T19:05:24.955Z,100425.09
2022-10-12T19:08:00.366Z,100424.69
2022-10-12T19:10:33.941Z,100425.28
2022-10-12T19:13:06.876Z,100419.19
2022-10-12T19:15:40.598Z,100416.22
2022-10-12T19:18:14.444Z,100418.34
2022-10-12T19:20:48.041Z,100424.00
2022-10-12T19:23:23.132Z,100421.47
2022-10-12T19:25:56.683Z,100423.56
2022-10-12T19:28:30.351Z,100421.47
2022-10-12T19:31:11.268Z,100426.09
2022-10-12T19:33:45.832Z,100423.72
2022-10-12T19:36:19.901Z,100430.03
2022-10-12T19:38:58.276Z,100433.16
2022-10-12T19:41:32.457Z,100430.19
2022-10-12T19:44:06.200Z,100429.41
2022-10-12T19:46:40.266Z,100425.00
2022-10-12T19:49:15.823Z,100429.03
2022-10-12T19:51:49.696Z,100424.97
2022-10-12T19:54:24.903Z,100427.47
2022-10-12T19:56:58.476Z,100426.66
2022-10-12T19:59:32.400Z,100426.47
2022-10-12T20:02:05.994Z,100431.28
2022-10-12T20:04:38.946Z,100430.41
2022-10-12T20:07:13.545Z,100426.56
2022-10-12T20:09:48.969Z,100425.88
2022-10-12T20:12:22.545Z,100437.59
2022-10-12T20:14:56.177Z,100441.63
2022-10-12T20:17:29.721Z,100436.19
2022-10-12T20:20:03.478Z,100432.19
2022-10-12T20:22:36.612Z,100437.88
2022-10-12T20:25:11.917Z,100441.63
2022-10-12T20:27:45.457Z,100445.22
2022-10-12T20:30:18.647Z,100441.44
2022-10-12T20:32:55.549Z,100446.63
2022-10-12T20:35:30.215Z,100446.19
2022-10-12T20:38:04.202Z,100454.34
2022-10-12T20:40:39.476Z,100454.38
2022-10-12T20:43:13.083Z,100455.25
2022-10-12T20:45:46.752Z,100456.06
2022-10-12T20:48:20.350Z,100464.66
2022-10-12T20:50:54.256Z,100460.44
2022-10-12T20:53:27.681Z,100460.69
2022-10-12T20:56:06.015Z,100461.75
2022-10-12T20:58:38.848Z,100463.81
2022-10-12T21:01:15.384Z,100472.63
2022-10-12T21:03:48.972Z,100479.75
2022-10-12T21:06:23.536Z,100475.06
2022-10-12T21:08:58.978Z,100481.75
2022-10-12T21:11:34.616Z,100479.22
2022-10-12T21:14:08.490Z,100478.38
2022-10-12T21:16:42.447Z,100475.00
2022-10-12T21:19:17.413Z,100473.50
2022-10-12T21:21:51.200Z,100483.06
2022-10-12T21:24:24.817Z,100482.03
2022-10-12T21:27:00.363Z,100483.06
2022-10-12T21:29:33.155Z,100475.31
2022-10-12T21:32:06.805Z,100478.31
2022-10-12T21:34:39.660Z,100473.72
2022-10-12T21:37:12.551Z,100469.03
2022-10-12T21:39:48.658Z,100470.78
2022-10-12T21:42:27.378Z,100467.16
2022-10-12T21:45:00.917Z,100470.31
2022-10-12T21:47:34.353Z,100467.38
2022-10-12T21:50:09.620Z,100471.75
2022-10-12T21:52:42.668Z,100477.22
2022-10-12T21:55:15.648Z,100476.19
2022-10-12T21:57:50.988Z,100476.63
2022-10-12T22:00:24.669Z,100475.34
2022-10-12T22:02:58.623Z,100472.63
2022-10-12T22:05:31.824Z,100469.88
2022-10-12T22:08:05.572Z,100472.84
2022-10-12T22:10:39.844Z,100460.38
2022-10-12T22:13:14.989Z,100466.41
2022-10-12T22:15:48.545Z,100473.78
2022-10-12T22:18:22.167Z,100462.44
2022-10-12T22:20:55.892Z,100458.72
2022-10-12T22:23:28.737Z,100464.41
2022-10-12T22:26:02.237Z,100460.22
2022-10-12T22:28:37.526Z,100459.78
2022-10-12T22:31:12.145Z,100462.50
2022-10-12T22:33:46.013Z,100464.78
2022-10-12T22:36:19.703Z,100471.94
2022-10-12T22:38:53.415Z,100475.06
2022-10-12T22:41:27.117Z,100470.84
2022-10-12T22:44:01.397Z,100468.31
2022-10-12T22:46:34.306Z,100480.06
2022-10-12T22:49:16.368Z,100480.06
2022-10-12T22:51:49.961Z,100478.13
2022-10-12T22:54:23.928Z,100484.22
2022-10-12T22:56:57.500Z,100470.75
2022-10-12T22:59:32.618Z,100483.75
2022-10-12T23:02:06.200Z,100479.34
2022-10-12T23:04:39.965Z,100483.09
2022-10-12T23:07:13.167Z,100475.94
2022-10-12T23:09:46.816Z,100480.38
2022-10-12T23:12:20.743Z,100476.34
2022-10-12T23:14:55.976Z,100485.72
2022-10-12T23:17:29.782Z,100478.97
2022-10-12T23:20:04.392Z,100476.81
2022-10-12T23:22:38.860Z,100488.78
2022-10-12T23:25:13.044Z,100488.69
2022-10-12T23:27:46.780Z,100483.84
2022-10-12T23:30:21.006Z,100490.50
2022-10-12T23:32:54.690Z,100482.31
2022-10-12T23:35:27.536Z,100489.47
2022-10-12T23:38:00.332Z,100498.34
2022-10-12T23:40:35.331Z,100494.16
2022-10-12T23:43:08.105Z,100488.91
2022-10-12T23:45:44.155Z,100497.31
2022-10-12T23:48:17.447Z,100496.69
2022-10-12T23:50:51.924Z,100491.78
2022-10-12T23:53:25.994Z,100499.19
2022-10-12T23:55:59.765Z,100502.34
2022-10-12T23:58:32.571Z,100498.56
